Time;durP1;ratioP1;P1;durP2;ratioP2;P2;SDS_P1;SDS_P2;PMS_P1;PMS_P2;Temp;Humidity;BMP_temperature;BMP_pressure;BME280_temperature;BME280_humidity;BME280_pressure;Samples;Min_cycle;Max_cycle;Signal;HPM_P1;HPM_P2
2022/09/04 00:05:14;;;;;;;1.85;1.67;;;;;;;19.13;59.34;96917.97;10394419;28;20053;-82
2022/09/04 00:10:54;;;;;;;1.50;1.40;;;;;;;19.13;59.13;96926.09;10338273;28;20041;-82
2022/09/04 00:16:41;;;;;;;1.67;1.35;;;;;;;19.13;59.32;96926.09;10373774;28;20485;-82
2022/09/04 00:22:17;;;;;;;1.42;1.33;;;;;;;19.11;59.25;96920.19;10357479;28;20093;-82
2022/09/04 00:27:44;;;;;;;1.30;1.20;;;;;;;19.12;59.28;96930.69;10383290;28;20049;-82
2022/09/04 00:33:10;;;;;;;1.80;1.65;;;;;;;19.12;59.23;96935.31;10357269;28;20042;-82
2022/09/04 00:38:54;;;;;;;1.52;1.40;;;;;;;19.12;59.26;96932.59;10385085;28;20042;-82
2022/09/04 00:44:27;;;;;;;1.38;1.27;;;;;;;19.12;59.25;96935.31;10347170;28;20088;-82
2022/09/04 00:50:11;;;;;;;1.50;1.25;;;;;;;19.12;59.39;96936.09;10398106;28;20053;-83
2022/09/04 00:56:11;;;;;;;5.10;1.60;;;;;;;19.12;59.45;96944.19;10374112;28;20041;-82
2022/09/04 01:01:30;;;;;;;1.92;1.23;;;;;;;19.13;59.12;96939.59;10387573;28;20042;-82
2022/09/04 01:07:23;;;;;;;1.30;1.20;;;;;;;19.12;59.44;96943.41;10391116;28;20045;-82
2022/09/04 01:12:53;;;;;;;1.58;1.40;;;;;;;19.12;59.15;96940.72;10379400;28;20042;-83
2022/09/04 01:18:28;;;;;;;1.50;1.40;;;;;;;19.12;59.23;96955.00;10354359;28;20064;-82
2022/09/04 01:24:18;;;;;;;1.48;1.33;;;;;;;19.12;59.25;96951.50;10349949;28;20038;-82
2022/09/04 01:30:04;;;;;;;3.70;1.20;;;;;;;19.12;59.27;96956.91;10384230;28;20445;-82
2022/09/04 01:35:40;;;;;;;1.30;1.20;;;;;;;19.12;59.22;96952.28;10390606;28;20042;-82
2022/09/04 01:41:06;;;;;;;1.63;1.23;;;;;;;19.13;59.25;96953.09;10382113;28;20095;-82
2022/09/04 01:46:46;;;;;;;1.30;1.20;;;;;;;19.12;59.17;96959.63;10383201;28;20500;-82
2022/09/04 01:52:47;;;;;;;1.55;1.30;;;;;;;19.13;59.19;96961.19;10397200;28;20559;-82
2022/09/04 01:59:08;;;;;;;1.30;1.20;;;;;;;19.10;59.23;96962.63;10392952;28;20049;-82
2022/09/04 02:04:57;;;;;;;1.20;1.10;;;;;;;19.12;59.16;96960.41;10266970;28;20506;-82
2022/09/04 02:10:55;;;;;;;1.50;1.40;;;;;;;19.12;59.12;96963.09;10361696;28;20413;-82
2022/09/04 02:16:21;;;;;;;1.30;1.20;;;;;;;19.12;59.16;96963.09;10359279;28;20541;-82
2022/09/04 02:21:49;;;;;;;1.05;1.00;;;;;;;19.11;59.13;96958.81;10365344;28;20037;-82
2022/09/04 02:27:08;;;;;;;;;;;;;;;19.12;59.14;96954.22;10381961;28;20042;-82
2022/09/04 02:32:55;;;;;;;1.27;1.10;;;;;;;19.12;59.12;96960.41;10382691;28;19928;-82
2022/09/04 02:38:44;;;;;;;1.42;1.33;;;;;;;19.11;59.26;96961.53;10378974;28;20046;-82
2022/09/04 02:44:28;;;;;;;1.23;1.00;;;;;;;19.13;59.15;96963.88;10365708;28;20064;-82
2022/09/04 02:49:56;;;;;;;1.17;1.10;;;;;;;19.12;59.12;96962.31;10383940;28;20042;-82
2022/09/04 02:55:29;;;;;;;1.02;1.02;;;;;;;19.12;59.23;96960.41;10393667;28;20046;-82
2022/09/04 03:01:06;;;;;;;1.25;1.02;;;;;;;19.14;59.15;96979.00;10380630;28;20050;-82
2022/09/04 03:06:41;;;;;;;1.17;1.10;;;;;;;19.12;59.19;96973.91;10339744;28;20046;-82
2022/09/04 03:12:08;;;;;;;1.25;1.15;;;;;;;19.12;59.22;96965.81;10389704;28;20049;-82
2022/09/04 03:17:44;;;;;;;1.20;1.00;;;;;;;19.13;59.10;96963.88;10385429;28;20504;-82
2022/09/04 03:23:13;;;;;;;1.20;1.10;;;;;;;19.12;59.12;96965.81;10372122;28;20060;-82
2022/09/04 03:28:53;;;;;;;1.10;1.00;;;;;;;19.11;59.26;96966.09;10370128;28;20064;-82
2022/09/04 03:34:32;;;;;;;1.20;1.10;;;;;;;19.12;59.33;96968.50;10358982;28;20129;-82
2022/09/04 03:40:00;;;;;;;1.02;1.00;;;;;;;19.11;59.19;96966.94;10383676;28;20038;-82
2022/09/04 03:45:41;;;;;;;1.30;1.00;;;;;;;19.12;59.25;96967.72;10378486;28;20068;-82
2022/09/04 03:51:37;;;;;;;0.98;0.98;;;;;;;19.12;59.21;96981.22;10396164;28;20053;-81
2022/09/04 03:57:05;;;;;;;1.30;1.20;;;;;;;19.11;59.19;96983.13;10338987;28;20065;-81
2022/09/04 04:02:50;;;;;;;1.30;1.20;;;;;;;19.12;59.32;96982.00;10384541;28;20406;-81
2022/09/04 04:08:32;;;;;;;1.23;1.10;;;;;;;19.13;59.18;96994.41;10376612;28;20061;-82
2022/09/04 04:14:36;;;;;;;1.10;1.00;;;;;;;19.12;59.31;96995.50;10416846;28;20042;-81
2022/09/04 04:20:26;;;;;;;0.98;0.98;;;;;;;19.11;59.16;96996.63;10342810;28;20054;-81
2022/09/04 04:26:14;;;;;;;1.23;1.13;;;;;;;19.12;59.17;96995.50;10370575;28;20046;-81
2022/09/04 04:31:36;;;;;;;1.10;1.00;;;;;;;19.11;59.19;96996.63;10341796;28;20057;-81
2022/09/04 04:37:29;;;;;;;1.30;1.20;;;;;;;19.12;59.13;97006.31;10396866;28;20061;-81
2022/09/04 04:42:52;;;;;;;1.30;1.20;;;;;;;19.12;59.14;97013.63;10360998;28;20090;-81
2022/09/04 04:48:42;;;;;;;1.23;1.13;;;;;;;19.11;59.14;97026.34;10405521;28;20056;-81
2022/09/04 04:54:32;;;;;;;1.00;0.90;;;;;;;19.12;59.01;97030.59;10377561;28;20092;-81
2022/09/04 05:00:11;;;;;;;0.85;0.85;;;;;;;19.12;59.27;97038.72;10408049;28;20034;-81
2022/09/04 05:05:52;;;;;;;0.95;0.90;;;;;;;19.12;59.37;97043.31;10369372;28;20056;-81
2022/09/04 05:11:50;;;;;;;1.17;1.08;;;;;;;19.12;59.06;97054.13;10392977;28;20046;-81
2022/09/04 05:17:39;;;;;;;1.10;1.00;;;;;;;19.11;59.25;97064.13;10398408;28;20038;-81
2022/09/04 05:23:24;;;;;;;1.08;0.98;;;;;;;19.12;59.27;97068.41;10382349;28;20042;-81
2022/09/04 05:29:00;;;;;;;1.08;1.00;;;;;;;19.12;59.26;97078.44;10394323;28;20054;-81
2022/09/04 05:34:25;;;;;;;1.00;0.95;;;;;;;19.12;59.27;97081.13;10358797;28;20049;-81
2022/09/04 05:39:53;;;;;;;1.98;0.90;;;;;;;19.13;59.09;97088.94;10405950;28;20038;-81
2022/09/04 05:45:50;;;;;;;1.20;1.10;;;;;;;19.13;59.19;97098.91;10403402;28;20038;-81
2022/09/04 05:51:28;;;;;;;0.90;0.90;;;;;;;19.13;59.20;97105.13;10385315;28;20413;-81
2022/09/04 05:56:51;;;;;;;1.00;1.00;;;;;;;19.12;59.26;97114.31;10397639;28;20034;-81
2022/09/04 06:02:21;;;;;;;0.98;0.90;;;;;;;19.13;59.20;97118.63;10389428;28;20038;-81
2022/09/04 06:07:58;;;;;;;0.90;0.90;;;;;;;19.13;59.19;97124.03;10368624;28;20057;-81
2022/09/04 06:13:49;;;;;;;0.95;0.95;;;;;;;19.12;59.26;97125.13;10341024;28;20096;-81
2022/09/04 06:19:26;;;;;;;0.77;0.77;;;;;;;19.13;59.22;97126.72;10395943;28;20117;-81
2022/09/04 06:25:08;;;;;;;1.63;1.10;;;;;;;19.13;59.22;97134.00;10395249;28;20034;-81
2022/09/04 06:30:41;;;;;;;1.23;0.90;;;;;;;19.14;59.25;97136.41;10379441;28;20394;-81
2022/09/04 06:36:13;;;;;;;0.90;0.90;;;;;;;19.13;59.19;97129.44;10373959;28;20112;-81
2022/09/04 06:42:09;;;;;;;1.20;1.10;;;;;;;19.14;59.31;97136.41;10368919;28;20046;-82
2022/09/04 06:48:11;;;;;;;1.17;1.08;;;;;;;19.15;59.30;97150.69;10386915;28;20120;-81
2022/09/04 06:53:48;;;;;;;1.10;0.95;;;;;;;19.15;59.27;97143.41;10366881;28;20062;-82
2022/09/04 06:59:26;;;;;;;0.90;0.90;;;;;;;19.15;59.34;97145.31;10377723;28;20091;-82
2022/09/04 07:04:51;;;;;;;1.10;1.00;;;;;;;19.15;59.37;97159.63;10390158;28;20042;-82
2022/09/04 07:10:14;;;;;;;0.95;0.95;;;;;;;19.15;59.19;97162.31;10406089;28;20505;-82
2022/09/04 07:16:04;;;;;;;1.10;1.10;;;;;;;19.16;59.33;97172.00;10381468;28;20046;-80
2022/09/04 07:21:50;;;;;;;1.45;1.10;;;;;;;19.17;59.40;97168.22;10379756;28;20042;-83
2022/09/04 07:27:14;;;;;;;1.73;1.35;;;;;;;19.18;59.41;97171.69;10374640;28;20045;-80
2022/09/04 07:33:15;;;;;;;1.30;1.20;;;;;;;19.18;59.79;97179.81;10372056;28;20045;-81
2022/09/04 07:38:37;;;;;;;2.15;1.42;;;;;;;19.20;59.97;97184.91;10353133;28;20057;-82
2022/09/04 07:44:17;;;;;;;2.08;1.50;;;;;;;19.19;59.99;97186.81;10371486;28;20042;-82
2022/09/04 07:49:42;;;;;;;1.60;1.50;;;;;;;19.19;60.22;97200.31;10374829;28;20104;-83
2022/09/04 07:55:33;;;;;;;3.47;1.80;;;;;;;19.21;60.16;97214.28;10380395;28;20045;-82
2022/09/04 08:01:13;;;;;;;2.22;1.70;;;;;;;19.21;60.44;97214.28;10372615;28;20041;-83
2022/09/04 08:06:47;;;;;;;3.28;1.90;;;;;;;19.22;61.01;97223.97;10387056;28;20037;-81
2022/09/04 08:12:24;;;;;;;3.42;1.90;;;;;;;19.24;61.18;97226.38;10395017;28;20042;-82
2022/09/04 08:18:05;;;;;;;5.18;2.42;;;;;;;19.24;61.26;97232.56;10382640;28;20042;-82
2022/09/04 08:23:55;;;;;;;5.88;2.70;;;;;;;19.26;61.28;97232.25;10383918;28;20045;-84
2022/09/04 08:29:14;;;;;;;5.82;2.83;;;;;;;19.26;61.10;97240.38;10409230;28;20104;-82
2022/09/04 08:35:04;;;;;;;5.40;2.72;;;;;;;19.29;61.45;97250.56;10395121;28;20038;-84
2022/09/04 08:40:53;;;;;;;5.55;3.13;;;;;;;19.28;61.59;97259.75;10370659;28;20042;-82
2022/09/04 08:46:35;;;;;;;5.68;3.53;;;;;;;19.29;61.51;97253.25;10378798;28;20041;-83
2022/09/04 08:51:57;;;;;;;5.40;3.65;;;;;;;19.30;61.55;97262.94;10383939;28;20156;-82
2022/09/04 08:57:30;;;;;;;10.65;3.70;;;;;;;19.30;61.65;97263.72;10396983;28;20457;-82
2022/09/04 09:03:08;;;;;;;8.93;3.45;;;;;;;19.32;61.91;97258.03;10384974;28;20103;-83
2022/09/04 09:08:46;;;;;;;5.80;3.70;;;;;;;19.32;61.61;97268.84;10398976;28;20560;-84
2022/09/04 09:14:51;;;;;;;4.43;3.10;;;;;;;19.31;61.16;97278.06;10405092;28;20319;-84
2022/09/04 09:20:35;;;;;;;5.38;3.40;;;;;;;19.30;61.04;97269.13;10348131;28;20950;-84
2022/09/04 09:26:14;;;;;;;3.53;3.08;;;;;;;19.30;60.70;97268.34;10372159;28;20045;-84
2022/09/04 09:31:52;;;;;;;4.05;3.17;;;;;;;19.30;60.88;97276.44;10377644;28;20451;-84
2022/09/04 09:37:20;;;;;;;5.55;3.28;;;;;;;19.30;60.88;97271.03;10417696;28;20034;-83
2022/09/04 09:43:17;;;;;;;5.35;3.55;;;;;;;19.31;61.27;97272.66;10382535;28;20052;-84
2022/09/04 09:49:07;;;;;;;3.97;3.25;;;;;;;19.32;61.21;97274.22;10381908;28;20049;-84
2022/09/04 09:54:48;;;;;;;3.88;3.35;;;;;;;19.32;60.96;97282.34;10393447;28;20050;-84
2022/09/04 10:00:16;;;;;;;4.20;3.03;;;;;;;19.32;61.03;97274.22;10390200;28;20046;-84
2022/09/04 10:05:48;;;;;;;4.38;3.25;;;;;;;19.30;60.84;97271.84;10375513;28;20034;-84
2022/09/04 10:11:22;;;;;;;3.30;3.00;;;;;;;19.32;60.76;97274.22;10386906;28;20073;-84
2022/09/04 10:17:09;;;;;;;3.05;2.80;;;;;;;19.32;60.65;97275.03;10364157;28;20038;-84
2022/09/04 10:23:06;;;;;;;3.78;3.33;;;;;;;19.31;60.54;97267.25;10384139;28;20041;-82
2022/09/04 10:29:04;;;;;;;4.47;3.80;;;;;;;19.33;60.86;97265.03;10379976;28;20049;-83
2022/09/04 10:34:32;;;;;;;4.00;3.60;;;;;;;19.33;61.08;97267.75;10374495;28;20398;-84
2022/09/04 10:46:05;;;;;;;5.03;3.22;;;;;;;19.33;60.94;97260.44;10399164;28;20050;-84
2022/09/04 10:51:44;;;;;;;15.35;5.90;;;;;;;19.35;61.44;97260.13;10365928;28;20088;-83
2022/09/04 10:57:46;;;;;;;7.57;4.82;;;;;;;19.36;61.94;97259.00;10351709;28;20084;-82
2022/09/04 11:03:28;;;;;;;7.18;4.30;;;;;;;19.38;61.65;97262.19;10354410;28;20046;-82
2022/09/04 11:09:05;;;;;;;6.40;4.10;;;;;;;19.37;61.72;97274.13;10390563;28;20072;-82
2022/09/04 11:14:53;;;;;;;4.53;3.35;;;;;;;19.40;61.61;97265.38;10394205;28;20038;-85
2022/09/04 11:20:35;;;;;;;4.17;3.47;;;;;;;19.42;61.57;97268.56;10374737;28;20046;-82
2022/09/04 11:26:26;;;;;;;3.88;3.50;;;;;;;19.44;61.89;97260.13;10366193;28;20064;-82
2022/09/04 11:32:14;;;;;;;4.30;3.10;;;;;;;19.45;61.99;97264.44;10363749;28;20046;-86
2022/09/04 11:37:49;;;;;;;;;;;;;;;19.45;62.21;97262.53;10366785;28;20049;-83
2022/09/04 11:43:27;;;;;;;4.07;3.05;;;;;;;19.46;62.10;97264.13;10361281;28;19982;-83
2022/09/04 11:49:26;;;;;;;3.78;2.78;;;;;;;19.48;62.09;97259.22;10378717;28;20053;-84
2022/09/04 11:54:55;;;;;;;3.40;3.10;;;;;;;19.48;61.94;97251.13;10299535;28;20054;-83
2022/09/04 12:00:15;;;;;;;4.00;3.00;;;;;;;19.49;62.09;97252.69;10355640;28;20449;-80
2022/09/04 12:06:14;;;;;;;4.13;2.80;;;;;;;19.49;62.08;97250.00;10351201;28;20375;-83
2022/09/04 12:11:53;;;;;;;2.92;2.70;;;;;;;19.51;62.20;97250.47;10345855;28;20050;-83
2022/09/04 12:17:17;;;;;;;3.70;3.13;;;;;;;19.51;62.00;97242.38;10360348;28;20064;-83
2022/09/04 12:23:02;;;;;;;3.25;2.95;;;;;;;19.51;61.67;97247.78;10338164;28;20486;-82
2022/09/04 12:28:40;;;;;;;3.67;2.90;;;;;;;19.51;61.49;97253.19;10344297;28;20046;-83
2022/09/04 12:34:37;;;;;;;3.03;2.70;;;;;;;19.51;61.31;97252.38;10370678;28;20049;-83
2022/09/04 12:40:30;;;;;;;3.97;2.92;;;;;;;19.51;61.30;97245.06;10352769;28;20047;-82
2022/09/04 12:46:13;;;;;;;4.03;2.90;;;;;;;19.52;61.72;97265.59;10335157;28;20486;-82
2022/09/04 12:51:59;;;;;;;3.53;2.70;;;;;;;19.51;62.05;97264.00;10356834;28;20417;-83
2022/09/04 12:58:01;;;;;;;3.75;2.58;;;;;;;19.53;62.10;97275.28;10363148;28;20053;-83
2022/09/04 13:03:37;;;;;;;2.88;2.65;;;;;;;19.53;62.36;97269.09;10344086;28;20065;-82
2022/09/04 13:09:18;;;;;;;3.47;3.00;;;;;;;19.52;62.05;97279.09;10358776;28;20042;-84
2022/09/04 13:15:09;;;;;;;4.03;2.47;;;;;;;19.54;61.74;97281.47;10392721;28;20133;-83
2022/09/04 13:20:39;;;;;;;2.88;2.58;;;;;;;19.54;61.55;97274.19;10363346;28;20061;-83
2022/09/04 13:26:43;;;;;;;2.85;2.55;;;;;;;19.54;61.70;97276.88;10376966;28;20517;-83
2022/09/04 13:32:10;;;;;;;2.70;2.50;;;;;;;19.55;62.04;97289.28;10285306;28;20501;-83
2022/09/04 13:37:37;;;;;;;4.43;2.60;;;;;;;19.55;62.35;97291.97;10394967;28;20049;-83
2022/09/04 13:43:11;;;;;;;2.72;2.53;;;;;;;19.57;62.60;97302.47;10390056;28;20433;-82
2022/09/04 13:48:36;;;;;;;2.97;2.40;;;;;;;19.56;62.77;97301.69;10403046;28;20125;-82
2022/09/04 13:54:30;;;;;;;2.42;2.20;;;;;;;19.58;62.80;97303.28;10364825;28;20476;-82
2022/09/04 13:59:49;;;;;;;2.55;2.35;;;;;;;19.57;62.58;97297.06;10342524;28;20509;-82
2022/09/04 14:05:14;;;;;;;2.70;2.50;;;;;;;19.60;62.01;97301.06;10378555;28;20038;-83
2022/09/04 14:11:00;;;;;;;3.72;2.42;;;;;;;19.61;62.19;97297.25;10402029;28;20042;-82
2022/09/04 14:16:22;;;;;;;2.92;2.42;;;;;;;19.61;61.95;97292.63;10376137;28;20061;-83
2022/09/04 14:22:03;;;;;;;3.10;2.80;;;;;;;19.65;61.44;97303.63;10362800;28;20516;-83
2022/09/04 14:28:04;;;;;;;7.93;2.97;;;;;;;19.66;60.94;97294.41;10385406;28;20042;-82
2022/09/04 14:33:34;;;;;;;4.60;2.63;;;;;;;19.67;60.33;97291.38;10333371;28;20068;-83
2022/09/04 14:39:19;;;;;;;2.97;2.67;;;;;;;19.68;60.46;97292.19;10388620;28;20042;-83
2022/09/04 14:44:51;;;;;;;4.03;2.65;;;;;;;19.70;60.96;97296.19;10358485;28;20038;-83
2022/09/04 14:50:13;;;;;;;3.00;2.70;;;;;;;19.73;61.23;97290.16;10387581;28;20046;-83
2022/09/04 14:55:40;;;;;;;2.92;2.72;;;;;;;19.77;61.14;97297.66;10355923;28;20038;-83
2022/09/04 15:01:05;;;;;;;4.03;2.72;;;;;;;19.77;60.93;97293.03;10372863;28;20061;-84
2022/09/04 15:06:43;;;;;;;3.83;2.88;;;;;;;19.79;60.82;97300.84;10353375;28;20046;-84
2022/09/04 15:12:35;;;;;;;3.00;2.67;;;;;;;19.81;60.71;97301.31;10345316;28;20046;-83
2022/09/04 15:18:08;;;;;;;2.80;2.60;;;;;;;19.81;60.45;97302.13;10340560;28;20058;-83
2022/09/04 15:23:36;;;;;;;2.75;2.55;;;;;;;19.82;60.03;97292.91;10355582;28;20049;-83
2022/09/04 15:29:26;;;;;;;3.40;2.83;;;;;;;19.84;59.76;97296.09;10374872;28;20041;-83
2022/09/04 15:34:45;;;;;;;5.32;3.17;;;;;;;19.86;59.83;97293.88;10379232;28;20500;-84
2022/09/04 15:40:27;;;;;;;4.85;3.08;;;;;;;19.88;60.05;97305.16;10359281;28;20058;-83
2022/09/04 15:45:49;;;;;;;2.67;2.47;;;;;;;19.89;60.20;97292.44;10385190;28;20037;-83
2022/09/04 15:51:37;;;;;;;3.00;2.55;;;;;;;19.89;60.46;97304.03;10384526;28;20117;-83
2022/09/04 15:57:02;;;;;;;3.13;2.80;;;;;;;19.87;60.47;97303.56;10386562;28;20469;-83
2022/09/04 16:02:36;;;;;;;3.17;2.88;;;;;;;19.89;60.31;97314.84;10346328;28;20707;-83
2022/09/04 16:08:05;;;;;;;3.00;2.50;;;;;;;19.86;60.57;97310.09;10364031;28;20176;-83
2022/09/04 16:13:25;;;;;;;3.30;2.60;;;;;;;19.87;60.43;97305.47;10358778;28;20046;-84
2022/09/04 16:18:50;;;;;;;4.03;2.70;;;;;;;19.86;60.51;97315.50;10384259;28;20042;-84
2022/09/04 16:24:14;;;;;;;3.75;2.53;;;;;;;19.86;60.67;97314.72;10383070;28;20176;-83
2022/09/04 16:29:36;;;;;;;4.15;2.50;;;;;;;19.84;61.12;97312.31;10366000;28;20552;-84
2022/09/04 16:35:00;;;;;;;4.20;3.10;;;;;;;19.83;61.57;97321.53;10365240;28;20049;-83
2022/09/04 16:40:44;;;;;;;3.60;2.90;;;;;;;19.81;61.86;97326.44;10394111;28;20038;-83
2022/09/04 16:46:13;;;;;;;3.30;3.00;;;;;;;19.81;62.01;97329.16;10351729;28;20441;-82
2022/09/04 16:51:46;;;;;;;3.08;2.78;;;;;;;19.79;62.36;97336.00;10360920;28;20060;-82
2022/09/04 16:57:13;;;;;;;3.30;3.00;;;;;;;19.78;62.81;97339.78;10340451;28;20042;-82
2022/09/04 17:02:53;;;;;;;4.25;3.10;;;;;;;19.75;62.74;97336.59;10395235;28;20487;-82
2022/09/04 17:08:17;;;;;;;5.50;3.10;;;;;;;19.74;62.91;97339.63;10391968;28;20034;-82
2022/09/04 17:13:54;;;;;;;3.40;3.10;;;;;;;19.73;63.16;97343.44;10364886;28;20041;-82
2022/09/04 17:19:14;;;;;;;3.83;2.90;;;;;;;19.70;63.24;97352.94;10379907;28;20099;-81
2022/09/04 17:25:00;;;;;;;5.03;2.97;;;;;;;19.71;63.03;97359.13;10360373;28;20069;-82
2022/09/04 17:30:42;;;;;;;2.90;2.70;;;;;;;19.71;62.79;97362.66;10381147;28;20065;-82
2022/09/04 17:41:41;;;;;;;4.47;3.22;;;;;;;19.74;62.53;97372.88;10320316;28;20042;-79
2022/09/04 17:47:29;;;;;;;4.55;3.30;;;;;;;19.81;63.20;97380.53;10350330;28;20053;-79
2022/09/04 17:52:56;;;;;;;3.15;2.88;;;;;;;19.83;62.77;97386.41;10360539;28;20049;-80
2022/09/04 17:58:55;;;;;;;3.33;3.03;;;;;;;19.85;62.62;97400.41;10355888;28;20042;-79
2022/09/04 18:04:30;;;;;;;;;;;;;;;19.86;62.40;97410.13;10323593;28;20058;-80
2022/09/04 18:10:12;;;;;;;3.42;2.75;;;;;;;19.88;62.36;97415.25;10325067;28;19948;-80
2022/09/04 18:16:14;;;;;;;7.38;3.42;;;;;;;19.87;62.47;97411.72;10356930;28;20046;-79
2022/09/04 18:21:44;;;;;;;5.55;3.03;;;;;;;19.88;62.59;97426.84;10304215;28;20092;-83
2022/09/04 18:27:27;;;;;;;5.30;3.45;;;;;;;19.87;62.44;97425.22;10345520;28;20049;-82
2022/09/04 18:32:56;;;;;;;5.00;3.45;;;;;;;19.89;62.48;97424.94;10314972;28;20034;-81
2022/09/04 18:38:33;;;;;;;5.53;3.50;;;;;;;19.89;62.63;97431.13;10329774;28;20061;-83
2022/09/04 18:44:04;;;;;;;13.20;6.45;;;;;;;19.91;63.03;97447.06;10341724;28;20551;-84
2022/09/04 18:49:23;;;;;;;17.75;8.15;;;;;;;19.92;63.22;97438.63;10333284;28;20461;-83
2022/09/04 18:54:47;;;;;;;13.10;6.30;;;;;;;19.93;63.32;97440.25;10319995;28;20408;-80
2022/09/04 19:00:10;;;;;;;12.13;5.88;;;;;;;19.93;63.63;97445.66;10327504;28;20046;-80
2022/09/04 19:05:32;;;;;;;14.15;6.40;;;;;;;19.95;63.96;97445.31;10321018;28;20046;-80
2022/09/04 19:10:54;;;;;;;14.32;6.65;;;;;;;19.97;63.96;97447.72;10346916;28;20046;-81
2022/09/04 19:16:38;;;;;;;16.75;6.45;;;;;;;19.97;63.98;97453.91;10356752;28;20100;-82
2022/09/04 19:22:20;;;;;;;12.43;6.30;;;;;;;19.95;63.83;97454.25;10343957;28;20065;-82
2022/09/04 19:27:48;;;;;;;11.90;5.95;;;;;;;19.97;63.79;97455.81;10343449;28;20049;-81
2022/09/04 19:33:15;;;;;;;11.18;5.60;;;;;;;19.95;63.97;97454.25;10346231;28;20128;-81
2022/09/04 19:38:58;;;;;;;11.77;5.68;;;;;;;19.95;63.87;97454.25;10337718;28;20058;-82
2022/09/04 19:44:23;;;;;;;9.05;5.50;;;;;;;19.97;63.72;97450.41;10336437;28;20065;-81
2022/09/04 19:50:15;;;;;;;11.38;5.43;;;;;;;19.97;63.95;97467.44;10344102;28;20042;-81
2022/09/04 19:55:44;;;;;;;8.70;5.03;;;;;;;19.97;63.85;97461.25;10331089;28;20052;-81
2022/09/04 20:01:12;;;;;;;7.50;4.95;;;;;;;19.97;63.79;97456.63;10361683;28;20050;-81
2022/09/04 20:06:47;;;;;;;10.95;5.57;;;;;;;19.98;64.22;97452.81;10328367;28;20042;-80
2022/09/04 20:12:14;;;;;;;10.95;5.20;;;;;;;20.00;64.18;97449.81;10359463;28;20073;-80
2022/09/04 20:18:02;;;;;;;9.48;4.72;;;;;;;20.01;63.90;97462.22;10341759;28;20053;-80
2022/09/04 20:23:56;;;;;;;8.50;4.90;;;;;;;19.99;64.09;97459.81;10331569;28;20448;-80
2022/09/04 20:29:18;;;;;;;8.52;4.90;;;;;;;20.01;64.07;97462.22;10340508;28;20045;-80
2022/09/04 20:34:42;;;;;;;6.60;4.50;;;;;;;20.00;64.01;97474.94;10340976;28;20046;-80
2022/09/04 20:40:16;;;;;;;7.63;4.65;;;;;;;20.00;64.10;97457.94;10335213;28;20050;-79
2022/09/04 20:45:54;;;;;;;6.72;4.40;;;;;;;20.00;64.00;97468.75;10359167;28;20072;-79
2022/09/04 20:51:19;;;;;;;7.25;4.65;;;;;;;20.01;64.13;97473.03;10365640;28;20045;-79
2022/09/04 20:56:58;;;;;;;8.30;4.30;;;;;;;20.00;64.01;97474.94;10330803;28;20606;-79
2022/09/04 21:02:49;;;;;;;7.97;4.25;;;;;;;20.00;64.08;97476.84;10339322;28;20050;-79
2022/09/04 21:08:12;;;;;;;6.43;4.22;;;;;;;20.00;64.03;97484.97;10348540;28;20556;-79
2022/09/04 21:13:40;;;;;;;7.80;4.78;;;;;;;20.00;63.96;97491.16;10343923;28;20046;-79
2022/09/04 21:19:09;;;;;;;7.32;4.10;;;;;;;20.01;64.06;97489.25;10336678;28;20046;-79
2022/09/04 21:24:49;;;;;;;;;;;;;;;20.00;63.97;97493.88;10356524;28;20046;-79
2022/09/04 21:30:15;;;;;;;5.97;3.92;;;;;;;20.00;63.92;97491.16;10346488;28;19921;-78
2022/09/04 21:35:53;;;;;;;7.03;4.13;;;;;;;20.00;63.94;97503.91;10339427;28;20046;-79
2022/09/04 21:41:34;;;;;;;6.60;4.00;;;;;;;20.01;64.03;97506.28;10323527;28;20104;-79
2022/09/04 21:47:16;;;;;;;7.30;4.40;;;;;;;20.01;64.00;97505.47;10349791;28;20129;-79
2022/09/04 21:52:41;;;;;;;5.32;4.22;;;;;;;20.00;63.94;97507.41;10374080;28;20050;-79
2022/09/04 21:58:19;;;;;;;6.93;3.85;;;;;;;20.01;63.88;97516.31;10331555;28;20058;-79
2022/09/04 22:04:10;;;;;;;4.95;4.13;;;;;;;20.01;63.97;97508.19;10337304;28;20042;-78
2022/09/04 22:10:07;;;;;;;5.28;3.90;;;;;;;20.00;63.97;97499.28;10315179;28;20068;-79
2022/09/04 22:15:38;;;;;;;4.93;3.45;;;;;;;20.00;63.94;97498.50;10340724;28;20120;-79
2022/09/04 22:21:16;;;;;;;4.53;3.80;;;;;;;20.00;63.89;97501.19;10334954;28;20042;-79
2022/09/04 22:26:54;;;;;;;4.93;3.60;;;;;;;20.01;63.92;97494.66;10341953;28;20046;-79
2022/09/04 22:32:27;;;;;;;4.90;3.80;;;;;;;20.01;63.92;97491.97;10326447;28;20057;-79
2022/09/04 22:38:02;;;;;;;4.50;3.80;;;;;;;20.00;63.92;97502.00;10330510;28;20054;-79
2022/09/04 22:43:22;;;;;;;6.40;3.65;;;;;;;20.00;63.93;97487.69;10356809;28;20050;-79
2022/09/04 22:48:51;;;;;;;4.63;3.38;;;;;;;20.00;63.81;97502.00;10352161;28;20405;-79
2022/09/04 22:54:13;;;;;;;4.60;3.60;;;;;;;20.01;63.82;97505.47;10348948;28;20043;-79
2022/09/04 22:59:54;;;;;;;4.35;3.70;;;;;;;20.01;63.89;97505.47;10350405;28;20039;-79
2022/09/04 23:05:32;;;;;;;4.65;3.60;;;;;;;20.01;63.88;97510.88;10329966;28;20113;-79
2022/09/04 23:11:02;;;;;;;4.20;3.77;;;;;;;20.01;63.95;97510.88;10359625;28;20178;-78
2022/09/04 23:16:48;;;;;;;3.95;3.33;;;;;;;20.00;63.84;97507.41;10333198;28;20054;-79
2022/09/04 23:22:12;;;;;;;4.38;3.38;;;;;;;20.01;63.90;97516.31;10339716;28;20057;-79
2022/09/04 23:27:56;;;;;;;3.95;3.55;;;;;;;20.01;63.83;97527.13;10315692;28;20042;-79
2022/09/04 23:33:22;;;;;;;4.53;3.45;;;;;;;20.01;63.84;97516.31;10339126;28;20058;-79
2022/09/04 23:39:00;;;;;;;4.63;3.42;;;;;;;20.00;63.83;97515.50;10352051;28;20065;-79
2022/09/04 23:44:59;;;;;;;4.40;3.40;;;;;;;20.01;63.75;97521.72;10340843;28;20042;-79
2022/09/04 23:50:48;;;;;;;4.35;3.28;;;;;;;20.00;63.77;97518.22;10327226;28;20038;-79
2022/09/04 23:56:34;;;;;;;6.28;3.50;;;;;;;20.00;63.72;97514.72;10319936;28;20046;-79
